sensor_id;sensor_type;location;lat;lon;timestamp;P1;durP1;ratioP1;P2;durP2;ratioP2
4812;SDS011;2420;51.202;8.698;2023-05-10T00:01:56;6.53;;;5.82;;
4812;SDS011;2420;51.202;8.698;2023-05-10T00:04:21;6.75;;;5.88;;
4812;SDS011;2420;51.202;8.698;2023-05-10T00:06:47;6.95;;;5.82;;
4812;SDS011;2420;51.202;8.698;2023-05-10T00:09:13;6.90;;;6.05;;
4812;SDS011;2420;51.202;8.698;2023-05-10T00:11:39;7.30;;;6.10;;
4812;SDS011;2420;51.202;8.698;2023-05-10T00:14:04;7.07;;;6.00;;
4812;SDS011;2420;51.202;8.698;2023-05-10T00:16:30;6.70;;;5.82;;
4812;SDS011;2420;51.202;8.698;2023-05-10T00:18:55;7.20;;;6.00;;
4812;SDS011;2420;51.202;8.698;2023-05-10T00:21:21;6.65;;;5.28;;
4812;SDS011;2420;51.202;8.698;2023-05-10T00:23:46;6.82;;;5.57;;
4812;SDS011;2420;51.202;8.698;2023-05-10T00:26:12;7.00;;;5.50;;
4812;SDS011;2420;51.202;8.698;2023-05-10T00:28:37;6.55;;;5.78;;
4812;SDS011;2420;51.202;8.698;2023-05-10T00:31:03;6.05;;;5.32;;
4812;SDS011;2420;51.202;8.698;2023-05-10T00:33:29;5.80;;;5.20;;
4812;SDS011;2420;51.202;8.698;2023-05-10T00:35:54;6.25;;;5.20;;
4812;SDS011;2420;51.202;8.698;2023-05-10T00:38:20;6.40;;;4.78;;
4812;SDS011;2420;51.202;8.698;2023-05-10T00:40:46;6.60;;;4.30;;
4812;SDS011;2420;51.202;8.698;2023-05-10T00:43:11;4.85;;;4.35;;
4812;SDS011;2420;51.202;8.698;2023-05-10T00:45:37;5.13;;;4.30;;
4812;SDS011;2420;51.202;8.698;2023-05-10T00:48:03;4.85;;;4.05;;
4812;SDS011;2420;51.202;8.698;2023-05-10T00:50:30;4.50;;;3.92;;
4812;SDS011;2420;51.202;8.698;2023-05-10T00:52:57;4.85;;;4.10;;
4812;SDS011;2420;51.202;8.698;2023-05-10T00:55:24;3.92;;;3.53;;
4812;SDS011;2420;51.202;8.698;2023-05-10T00:57:50;3.78;;;3.35;;
4812;SDS011;2420;51.202;8.698;2023-05-10T01:00:17;3.00;;;2.75;;
4812;SDS011;2420;51.202;8.698;2023-05-10T01:02:46;2.35;;;2.00;;
4812;SDS011;2420;51.202;8.698;2023-05-10T01:05:12;1.60;;;1.30;;
4812;SDS011;2420;51.202;8.698;2023-05-10T01:07:38;1.58;;;1.10;;
4812;SDS011;2420;51.202;8.698;2023-05-10T01:10:05;1.20;;;1.10;;
4812;SDS011;2420;51.202;8.698;2023-05-10T01:12:32;3.90;;;1.00;;
4812;SDS011;2420;51.202;8.698;2023-05-10T01:15:02;0.80;;;0.80;;
4812;SDS011;2420;51.202;8.698;2023-05-10T01:17:30;7.97;;;0.93;;
4812;SDS011;2420;51.202;8.698;2023-05-10T01:19:56;1.40;;;0.60;;
4812;SDS011;2420;51.202;8.698;2023-05-10T01:25:19;0.40;;;0.40;;
4812;SDS011;2420;51.202;8.698;2023-05-10T01:31:18;0.40;;;0.40;;
4812;SDS011;2420;51.202;8.698;2023-05-10T01:34:07;0.65;;;0.50;;
4812;SDS011;2420;51.202;8.698;2023-05-10T01:36:40;1.08;;;0.55;;
4812;SDS011;2420;51.202;8.698;2023-05-10T01:39:17;0.50;;;0.50;;
4812;SDS011;2420;51.202;8.698;2023-05-10T01:47:10;1.02;;;0.50;;
4812;SDS011;2420;51.202;8.698;2023-05-10T01:49:41;0.40;;;0.40;;
4812;SDS011;2420;51.202;8.698;2023-05-10T01:52:12;0.50;;;0.50;;
4812;SDS011;2420;51.202;8.698;2023-05-10T01:54:43;0.40;;;0.40;;
4812;SDS011;2420;51.202;8.698;2023-05-10T01:57:14;0.52;;;0.52;;
4812;SDS011;2420;51.202;8.698;2023-05-10T01:59:43;0.65;;;0.60;;
4812;SDS011;2420;51.202;8.698;2023-05-10T02:02:10;0.40;;;0.40;;
4812;SDS011;2420;51.202;8.698;2023-05-10T02:04:37;0.55;;;0.50;;
4812;SDS011;2420;51.202;8.698;2023-05-10T02:07:04;0.50;;;0.50;;
4812;SDS011;2420;51.202;8.698;2023-05-10T02:09:32;0.60;;;0.50;;
4812;SDS011;2420;51.202;8.698;2023-05-10T02:11:59;0.43;;;0.43;;
4812;SDS011;2420;51.202;8.698;2023-05-10T02:14:27;0.50;;;0.50;;
4812;SDS011;2420;51.202;8.698;2023-05-10T02:16:57;0.40;;;0.40;;
4812;SDS011;2420;51.202;8.698;2023-05-10T02:19:25;1.20;;;0.40;;
4812;SDS011;2420;51.202;8.698;2023-05-10T02:21:52;0.65;;;0.50;;
4812;SDS011;2420;51.202;8.698;2023-05-10T02:24:20;0.50;;;0.50;;
4812;SDS011;2420;51.202;8.698;2023-05-10T02:26:47;0.50;;;0.50;;
4812;SDS011;2420;51.202;8.698;2023-05-10T02:29:14;0.75;;;0.50;;
4812;SDS011;2420;51.202;8.698;2023-05-10T02:31:42;0.50;;;0.50;;
4812;SDS011;2420;51.202;8.698;2023-05-10T02:34:08;0.40;;;0.40;;
4812;SDS011;2420;51.202;8.698;2023-05-10T02:36:36;0.63;;;0.50;;
4812;SDS011;2420;51.202;8.698;2023-05-10T02:39:03;1.10;;;0.57;;
4812;SDS011;2420;51.202;8.698;2023-05-10T02:41:34;0.50;;;0.50;;
4812;SDS011;2420;51.202;8.698;2023-05-10T02:44:01;2.67;;;0.63;;
4812;SDS011;2420;51.202;8.698;2023-05-10T02:46:31;0.60;;;0.60;;
4812;SDS011;2420;51.202;8.698;2023-05-10T02:48:57;0.60;;;0.60;;
4812;SDS011;2420;51.202;8.698;2023-05-10T02:51:24;0.60;;;0.60;;
4812;SDS011;2420;51.202;8.698;2023-05-10T02:53:53;0.50;;;0.50;;
4812;SDS011;2420;51.202;8.698;2023-05-10T02:56:23;0.60;;;0.60;;
4812;SDS011;2420;51.202;8.698;2023-05-10T02:58:53;0.50;;;0.50;;
4812;SDS011;2420;51.202;8.698;2023-05-10T03:01:19;0.80;;;0.80;;
4812;SDS011;2420;51.202;8.698;2023-05-10T03:03:45;1.98;;;0.90;;
4812;SDS011;2420;51.202;8.698;2023-05-10T03:06:10;1.00;;;0.90;;
4812;SDS011;2420;51.202;8.698;2023-05-10T03:08:36;1.42;;;0.75;;
4812;SDS011;2420;51.202;8.698;2023-05-10T03:11:08;1.20;;;0.88;;
4812;SDS011;2420;51.202;8.698;2023-05-10T03:13:56;0.60;;;0.60;;
4812;SDS011;2420;51.202;8.698;2023-05-10T03:16:42;0.50;;;0.50;;
4812;SDS011;2420;51.202;8.698;2023-05-10T03:20:02;0.60;;;0.60;;
4812;SDS011;2420;51.202;8.698;2023-05-10T03:22:06;0.60;;;0.60;;
4812;SDS011;2420;51.202;8.698;2023-05-10T03:24:35;0.50;;;0.50;;
4812;SDS011;2420;51.202;8.698;2023-05-10T03:27:04;0.60;;;0.60;;
4812;SDS011;2420;51.202;8.698;2023-05-10T03:29:31;0.50;;;0.50;;
4812;SDS011;2420;51.202;8.698;2023-05-10T03:31:57;0.40;;;0.40;;
4812;SDS011;2420;51.202;8.698;2023-05-10T03:34:24;0.50;;;0.50;;
4812;SDS011;2420;51.202;8.698;2023-05-10T03:36:50;0.40;;;0.40;;
4812;SDS011;2420;51.202;8.698;2023-05-10T03:39:16;0.45;;;0.45;;
4812;SDS011;2420;51.202;8.698;2023-05-10T03:41:42;0.50;;;0.50;;
4812;SDS011;2420;51.202;8.698;2023-05-10T03:44:07;0.75;;;0.55;;
4812;SDS011;2420;51.202;8.698;2023-05-10T03:46:33;1.63;;;0.60;;
4812;SDS011;2420;51.202;8.698;2023-05-10T03:48:59;0.70;;;0.70;;
4812;SDS011;2420;51.202;8.698;2023-05-10T03:51:24;0.70;;;0.70;;
4812;SDS011;2420;51.202;8.698;2023-05-10T03:53:53;0.60;;;0.60;;
4812;SDS011;2420;51.202;8.698;2023-05-10T03:56:19;0.68;;;0.60;;
4812;SDS011;2420;51.202;8.698;2023-05-10T03:58:45;0.60;;;0.60;;
4812;SDS011;2420;51.202;8.698;2023-05-10T04:01:11;0.85;;;0.70;;
4812;SDS011;2420;51.202;8.698;2023-05-10T04:03:37;0.60;;;0.60;;
4812;SDS011;2420;51.202;8.698;2023-05-10T04:06:03;0.70;;;0.70;;
4812;SDS011;2420;51.202;8.698;2023-05-10T04:08:29;0.60;;;0.60;;
4812;SDS011;2420;51.202;8.698;2023-05-10T04:11:11;0.60;;;0.60;;
4812;SDS011;2420;51.202;8.698;2023-05-10T04:13:37;1.58;;;0.70;;
4812;SDS011;2420;51.202;8.698;2023-05-10T04:16:03;0.73;;;0.70;;
4812;SDS011;2420;51.202;8.698;2023-05-10T04:18:30;0.70;;;0.70;;
4812;SDS011;2420;51.202;8.698;2023-05-10T04:20:56;1.33;;;0.77;;
4812;SDS011;2420;51.202;8.698;2023-05-10T04:23:21;0.70;;;0.70;;
4812;SDS011;2420;51.202;8.698;2023-05-10T04:25:47;0.90;;;0.90;;
4812;SDS011;2420;51.202;8.698;2023-05-10T04:28:12;1.77;;;0.82;;
4812;SDS011;2420;51.202;8.698;2023-05-10T04:30:38;0.93;;;0.82;;
4812;SDS011;2420;51.202;8.698;2023-05-10T04:33:04;0.70;;;0.70;;
4812;SDS011;2420;51.202;8.698;2023-05-10T04:35:29;1.00;;;0.90;;
4812;SDS011;2420;51.202;8.698;2023-05-10T04:37:55;1.98;;;0.82;;
4812;SDS011;2420;51.202;8.698;2023-05-10T04:40:20;0.82;;;0.82;;
4812;SDS011;2420;51.202;8.698;2023-05-10T04:42:46;1.20;;;1.00;;
4812;SDS011;2420;51.202;8.698;2023-05-10T04:45:11;1.15;;;1.00;;
4812;SDS011;2420;51.202;8.698;2023-05-10T04:47:39;2.92;;;1.02;;
4812;SDS011;2420;51.202;8.698;2023-05-10T04:50:05;1.10;;;1.00;;
4812;SDS011;2420;51.202;8.698;2023-05-10T04:52:32;1.25;;;0.90;;
4812;SDS011;2420;51.202;8.698;2023-05-10T04:54:57;1.10;;;1.00;;
4812;SDS011;2420;51.202;8.698;2023-05-10T04:57:23;1.05;;;0.90;;
4812;SDS011;2420;51.202;8.698;2023-05-10T04:59:48;1.65;;;0.90;;
4812;SDS011;2420;51.202;8.698;2023-05-10T05:02:14;0.80;;;0.80;;
4812;SDS011;2420;51.202;8.698;2023-05-10T05:04:39;1.95;;;0.90;;
4812;SDS011;2420;51.202;8.698;2023-05-10T05:07:05;3.20;;;1.20;;
4812;SDS011;2420;51.202;8.698;2023-05-10T05:09:30;3.35;;;1.10;;
4812;SDS011;2420;51.202;8.698;2023-05-10T05:11:57;1.40;;;1.08;;
4812;SDS011;2420;51.202;8.698;2023-05-10T05:14:23;0.90;;;0.90;;
4812;SDS011;2420;51.202;8.698;2023-05-10T05:16:50;2.25;;;1.00;;
4812;SDS011;2420;51.202;8.698;2023-05-10T05:19:16;1.10;;;1.00;;
4812;SDS011;2420;51.202;8.698;2023-05-10T05:21:42;1.17;;;1.08;;
4812;SDS011;2420;51.202;8.698;2023-05-10T05:24:08;0.98;;;0.90;;
4812;SDS011;2420;51.202;8.698;2023-05-10T05:26:35;1.10;;;1.00;;
4812;SDS011;2420;51.202;8.698;2023-05-10T05:29:01;1.17;;;1.08;;
4812;SDS011;2420;51.202;8.698;2023-05-10T05:31:27;1.10;;;1.00;;
4812;SDS011;2420;51.202;8.698;2023-05-10T05:33:53;1.65;;;1.23;;
4812;SDS011;2420;51.202;8.698;2023-05-10T05:36:19;1.10;;;1.00;;
4812;SDS011;2420;51.202;8.698;2023-05-10T05:38:45;1.10;;;1.00;;
4812;SDS011;2420;51.202;8.698;2023-05-10T05:41:10;1.20;;;1.10;;
4812;SDS011;2420;51.202;8.698;2023-05-10T05:43:36;1.63;;;1.10;;
4812;SDS011;2420;51.202;8.698;2023-05-10T05:46:01;1.50;;;1.13;;
4812;SDS011;2420;51.202;8.698;2023-05-10T05:48:27;1.83;;;1.20;;
4812;SDS011;2420;51.202;8.698;2023-05-10T05:50:55;1.20;;;1.10;;
4812;SDS011;2420;51.202;8.698;2023-05-10T05:53:21;1.55;;;1.30;;
4812;SDS011;2420;51.202;8.698;2023-05-10T05:55:53;1.95;;;1.20;;
4812;SDS011;2420;51.202;8.698;2023-05-10T05:58:20;2.45;;;1.17;;
4812;SDS011;2420;51.202;8.698;2023-05-10T06:00:46;1.35;;;1.10;;
4812;SDS011;2420;51.202;8.698;2023-05-10T06:03:12;1.33;;;1.08;;
4812;SDS011;2420;51.202;8.698;2023-05-10T06:05:38;3.28;;;1.10;;
4812;SDS011;2420;51.202;8.698;2023-05-10T06:08:03;1.40;;;1.20;;
4812;SDS011;2420;51.202;8.698;2023-05-10T06:10:29;1.63;;;1.20;;
4812;SDS011;2420;51.202;8.698;2023-05-10T06:12:55;1.40;;;1.30;;
4812;SDS011;2420;51.202;8.698;2023-05-10T06:15:21;1.30;;;1.20;;
4812;SDS011;2420;51.202;8.698;2023-05-10T06:17:46;1.98;;;1.20;;
4812;SDS011;2420;51.202;8.698;2023-05-10T06:20:14;3.15;;;1.30;;
4812;SDS011;2420;51.202;8.698;2023-05-10T06:22:40;1.30;;;1.20;;
4812;SDS011;2420;51.202;8.698;2023-05-10T06:25:06;1.42;;;1.30;;
4812;SDS011;2420;51.202;8.698;2023-05-10T06:27:32;3.28;;;2.30;;
4812;SDS011;2420;51.202;8.698;2023-05-10T06:29:58;1.80;;;1.67;;
4812;SDS011;2420;51.202;8.698;2023-05-10T06:32:23;1.80;;;1.70;;
4812;SDS011;2420;51.202;8.698;2023-05-10T06:34:49;1.98;;;1.73;;
4812;SDS011;2420;51.202;8.698;2023-05-10T06:37:14;3.80;;;2.00;;
4812;SDS011;2420;51.202;8.698;2023-05-10T06:39:40;2.72;;;1.98;;
4812;SDS011;2420;51.202;8.698;2023-05-10T06:42:05;2.67;;;1.98;;
4812;SDS011;2420;51.202;8.698;2023-05-10T06:44:31;3.53;;;1.95;;
4812;SDS011;2420;51.202;8.698;2023-05-10T06:46:56;2.20;;;2.00;;
4812;SDS011;2420;51.202;8.698;2023-05-10T06:49:22;2.60;;;1.90;;
4812;SDS011;2420;51.202;8.698;2023-05-10T06:51:47;1.98;;;1.83;;
4812;SDS011;2420;51.202;8.698;2023-05-10T06:54:13;2.97;;;2.13;;
4812;SDS011;2420;51.202;8.698;2023-05-10T06:56:39;2.55;;;2.10;;
4812;SDS011;2420;51.202;8.698;2023-05-10T06:59:05;2.60;;;2.10;;
4812;SDS011;2420;51.202;8.698;2023-05-10T07:01:30;1.90;;;1.80;;
4812;SDS011;2420;51.202;8.698;2023-05-10T07:03:56;2.20;;;2.00;;
4812;SDS011;2420;51.202;8.698;2023-05-10T07:06:21;2.92;;;2.28;;
4812;SDS011;2420;51.202;8.698;2023-05-10T07:08:47;2.22;;;2.03;;
4812;SDS011;2420;51.202;8.698;2023-05-10T07:11:12;2.53;;;2.33;;
4812;SDS011;2420;51.202;8.698;2023-05-10T07:13:38;2.92;;;2.40;;
4812;SDS011;2420;51.202;8.698;2023-05-10T07:16:06;2.92;;;2.65;;
4812;SDS011;2420;51.202;8.698;2023-05-10T07:18:32;3.40;;;2.20;;
4812;SDS011;2420;51.202;8.698;2023-05-10T07:21:01;2.25;;;2.05;;
4812;SDS011;2420;51.202;8.698;2023-05-10T07:23:27;3.20;;;2.40;;
4812;SDS011;2420;51.202;8.698;2023-05-10T07:25:52;2.35;;;2.15;;
4812;SDS011;2420;51.202;8.698;2023-05-10T07:28:18;2.35;;;2.05;;
4812;SDS011;2420;51.202;8.698;2023-05-10T07:30:44;4.40;;;2.10;;
4812;SDS011;2420;51.202;8.698;2023-05-10T07:33:10;2.75;;;2.30;;
4812;SDS011;2420;51.202;8.698;2023-05-10T07:35:37;2.10;;;1.90;;
4812;SDS011;2420;51.202;8.698;2023-05-10T07:38:02;2.53;;;2.00;;
4812;SDS011;2420;51.202;8.698;2023-05-10T07:40:28;3.20;;;2.20;;
4812;SDS011;2420;51.202;8.698;2023-05-10T07:42:54;3.42;;;2.10;;
4812;SDS011;2420;51.202;8.698;2023-05-10T07:45:20;4.20;;;2.00;;
4812;SDS011;2420;51.202;8.698;2023-05-10T07:47:45;3.67;;;2.30;;
4812;SDS011;2420;51.202;8.698;2023-05-10T07:50:11;2.88;;;2.17;;
4812;SDS011;2420;51.202;8.698;2023-05-10T07:52:37;3.20;;;2.40;;
4812;SDS011;2420;51.202;8.698;2023-05-10T07:55:03;3.75;;;2.15;;
4812;SDS011;2420;51.202;8.698;2023-05-10T07:57:28;3.20;;;2.30;;
4812;SDS011;2420;51.202;8.698;2023-05-10T07:59:54;4.03;;;2.50;;
4812;SDS011;2420;51.202;8.698;2023-05-10T08:02:20;3.40;;;2.55;;
4812;SDS011;2420;51.202;8.698;2023-05-10T08:04:45;5.07;;;2.25;;
4812;SDS011;2420;51.202;8.698;2023-05-10T08:07:11;3.30;;;2.40;;
4812;SDS011;2420;51.202;8.698;2023-05-10T08:09:36;4.88;;;3.00;;
4812;SDS011;2420;51.202;8.698;2023-05-10T08:12:02;4.75;;;2.85;;
4812;SDS011;2420;51.202;8.698;2023-05-10T08:14:28;4.18;;;2.88;;
4812;SDS011;2420;51.202;8.698;2023-05-10T08:16:54;4.75;;;3.40;;
4812;SDS011;2420;51.202;8.698;2023-05-10T08:19:20;6.65;;;3.15;;
4812;SDS011;2420;51.202;8.698;2023-05-10T08:21:46;5.38;;;3.22;;
4812;SDS011;2420;51.202;8.698;2023-05-10T08:24:12;4.75;;;3.42;;
4812;SDS011;2420;51.202;8.698;2023-05-10T08:26:38;5.55;;;3.50;;
4812;SDS011;2420;51.202;8.698;2023-05-10T08:29:03;4.80;;;3.45;;
4812;SDS011;2420;51.202;8.698;2023-05-10T08:31:29;5.10;;;3.50;;
4812;SDS011;2420;51.202;8.698;2023-05-10T08:33:55;5.38;;;3.40;;
4812;SDS011;2420;51.202;8.698;2023-05-10T08:36:20;7.45;;;3.50;;
4812;SDS011;2420;51.202;8.698;2023-05-10T08:38:51;5.82;;;4.03;;
4812;SDS011;2420;51.202;8.698;2023-05-10T08:41:19;6.93;;;3.92;;
4812;SDS011;2420;51.202;8.698;2023-05-10T08:43:52;6.35;;;3.58;;
4812;SDS011;2420;51.202;8.698;2023-05-10T08:46:19;6.93;;;4.00;;
4812;SDS011;2420;51.202;8.698;2023-05-10T08:48:46;8.50;;;4.13;;
4812;SDS011;2420;51.202;8.698;2023-05-10T08:51:14;9.93;;;5.10;;
4812;SDS011;2420;51.202;8.698;2023-05-10T08:53:42;6.03;;;4.15;;
4812;SDS011;2420;51.202;8.698;2023-05-10T08:56:09;7.82;;;4.93;;
4812;SDS011;2420;51.202;8.698;2023-05-10T08:58:35;7.35;;;4.85;;
4812;SDS011;2420;51.202;8.698;2023-05-10T09:01:01;7.22;;;3.92;;
4812;SDS011;2420;51.202;8.698;2023-05-10T09:03:28;7.28;;;4.47;;
4812;SDS011;2420;51.202;8.698;2023-05-10T09:05:53;7.07;;;4.60;;
4812;SDS011;2420;51.202;8.698;2023-05-10T09:08:20;6.82;;;4.50;;
4812;SDS011;2420;51.202;8.698;2023-05-10T09:10:50;5.78;;;4.05;;
4812;SDS011;2420;51.202;8.698;2023-05-10T09:13:15;7.90;;;5.03;;
4812;SDS011;2420;51.202;8.698;2023-05-10T09:15:43;7.47;;;4.63;;
4812;SDS011;2420;51.202;8.698;2023-05-10T09:18:10;6.55;;;4.60;;
4812;SDS011;2420;51.202;8.698;2023-05-10T09:20:36;7.10;;;4.60;;
4812;SDS011;2420;51.202;8.698;2023-05-10T09:23:01;8.00;;;4.53;;
4812;SDS011;2420;51.202;8.698;2023-05-10T09:25:27;6.28;;;4.43;;
4812;SDS011;2420;51.202;8.698;2023-05-10T09:27:52;7.18;;;4.28;;
4812;SDS011;2420;51.202;8.698;2023-05-10T09:30:25;6.97;;;4.18;;
4812;SDS011;2420;51.202;8.698;2023-05-10T09:32:53;5.88;;;3.83;;
4812;SDS011;2420;51.202;8.698;2023-05-10T09:35:19;6.03;;;4.40;;
4812;SDS011;2420;51.202;8.698;2023-05-10T09:37:48;5.05;;;3.75;;
4812;SDS011;2420;51.202;8.698;2023-05-10T09:40:15;3.78;;;2.92;;
4812;SDS011;2420;51.202;8.698;2023-05-10T09:42:53;6.43;;;3.75;;
4812;SDS011;2420;51.202;8.698;2023-05-10T09:45:38;5.13;;;3.55;;
4812;SDS011;2420;51.202;8.698;2023-05-10T09:48:06;4.38;;;3.40;;
4812;SDS011;2420;51.202;8.698;2023-05-10T09:50:31;4.30;;;3.20;;
4812;SDS011;2420;51.202;8.698;2023-05-10T09:52:58;5.97;;;3.33;;
4812;SDS011;2420;51.202;8.698;2023-05-10T09:55:26;4.85;;;3.40;;
4812;SDS011;2420;51.202;8.698;2023-05-10T09:58:07;5.15;;;3.50;;
4812;SDS011;2420;51.202;8.698;2023-05-10T10:00:35;6.15;;;3.50;;
4812;SDS011;2420;51.202;8.698;2023-05-10T10:03:02;6.90;;;3.35;;
4812;SDS011;2420;51.202;8.698;2023-05-10T10:05:32;4.95;;;3.30;;
4812;SDS011;2420;51.202;8.698;2023-05-10T10:07:59;4.97;;;3.20;;
4812;SDS011;2420;51.202;8.698;2023-05-10T10:10:26;3.70;;;3.00;;
4812;SDS011;2420;51.202;8.698;2023-05-10T10:12:53;5.00;;;3.65;;
4812;SDS011;2420;51.202;8.698;2023-05-10T10:15:20;4.28;;;3.25;;
4812;SDS011;2420;51.202;8.698;2023-05-10T10:17:48;4.22;;;3.15;;
4812;SDS011;2420;51.202;8.698;2023-05-10T10:20:14;6.28;;;2.92;;
4812;SDS011;2420;51.202;8.698;2023-05-10T10:22:40;3.85;;;2.92;;
4812;SDS011;2420;51.202;8.698;2023-05-10T10:25:05;3.67;;;3.10;;
4812;SDS011;2420;51.202;8.698;2023-05-10T10:35:18;5.53;;;2.85;;
4812;SDS011;2420;51.202;8.698;2023-05-10T10:37:45;4.38;;;3.10;;
4812;SDS011;2420;51.202;8.698;2023-05-10T10:40:31;4.38;;;3.10;;
4812;SDS011;2420;51.202;8.698;2023-05-10T10:42:58;3.72;;;2.80;;
4812;SDS011;2420;51.202;8.698;2023-05-10T10:48:39;3.13;;;2.42;;
4812;SDS011;2420;51.202;8.698;2023-05-10T10:51:05;6.03;;;2.47;;
4812;SDS011;2420;51.202;8.698;2023-05-10T10:53:31;3.42;;;2.83;;
4812;SDS011;2420;51.202;8.698;2023-05-10T10:56:10;6.03;;;3.17;;
4812;SDS011;2420;51.202;8.698;2023-05-10T10:58:38;3.17;;;2.70;;
4812;SDS011;2420;51.202;8.698;2023-05-10T11:01:14;4.10;;;3.00;;
4812;SDS011;2420;51.202;8.698;2023-05-10T11:03:41;2.97;;;2.60;;
4812;SDS011;2420;51.202;8.698;2023-05-10T11:06:32;3.25;;;2.75;;
4812;SDS011;2420;51.202;8.698;2023-05-10T11:08:59;2.92;;;2.63;;
4812;SDS011;2420;51.202;8.698;2023-05-10T11:11:30;4.50;;;3.30;;
4812;SDS011;2420;51.202;8.698;2023-05-10T11:13:56;5.47;;;2.90;;
4812;SDS011;2420;51.202;8.698;2023-05-10T11:16:28;2.80;;;2.50;;
4812;SDS011;2420;51.202;8.698;2023-05-10T11:19:08;3.97;;;2.60;;
4812;SDS011;2420;51.202;8.698;2023-05-10T11:21:44;2.90;;;2.45;;
4812;SDS011;2420;51.202;8.698;2023-05-10T11:24:21;4.07;;;2.60;;
4812;SDS011;2420;51.202;8.698;2023-05-10T11:26:51;3.22;;;2.47;;
4812;SDS011;2420;51.202;8.698;2023-05-10T11:29:17;4.85;;;2.80;;
4812;SDS011;2420;51.202;8.698;2023-05-10T11:31:46;4.90;;;2.60;;
4812;SDS011;2420;51.202;8.698;2023-05-10T11:34:28;3.55;;;2.65;;
4812;SDS011;2420;51.202;8.698;2023-05-10T11:36:56;3.40;;;2.65;;
4812;SDS011;2420;51.202;8.698;2023-05-10T11:39:29;4.03;;;2.58;;
4812;SDS011;2420;51.202;8.698;2023-05-10T11:41:55;4.07;;;2.50;;
4812;SDS011;2420;51.202;8.698;2023-05-10T11:44:22;2.42;;;2.22;;
4812;SDS011;2420;51.202;8.698;2023-05-10T11:46:48;3.28;;;2.53;;
4812;SDS011;2420;51.202;8.698;2023-05-10T11:49:14;4.40;;;2.65;;
4812;SDS011;2420;51.202;8.698;2023-05-10T11:51:40;4.38;;;3.35;;
4812;SDS011;2420;51.202;8.698;2023-05-10T11:54:07;3.53;;;2.45;;
4812;SDS011;2420;51.202;8.698;2023-05-10T11:56:34;3.35;;;2.63;;
4812;SDS011;2420;51.202;8.698;2023-05-10T11:59:01;2.92;;;2.30;;
4812;SDS011;2420;51.202;8.698;2023-05-10T12:01:27;3.17;;;2.38;;
4812;SDS011;2420;51.202;8.698;2023-05-10T12:03:54;3.17;;;2.88;;
4812;SDS011;2420;51.202;8.698;2023-05-10T12:06:25;3.80;;;2.75;;
4812;SDS011;2420;51.202;8.698;2023-05-10T12:08:52;4.10;;;2.95;;
4812;SDS011;2420;51.202;8.698;2023-05-10T12:11:18;4.22;;;2.72;;
4812;SDS011;2420;51.202;8.698;2023-05-10T12:13:45;3.70;;;2.60;;
4812;SDS011;2420;51.202;8.698;2023-05-10T12:16:32;3.33;;;2.97;;
4812;SDS011;2420;51.202;8.698;2023-05-10T12:18:58;3.42;;;2.60;;
4812;SDS011;2420;51.202;8.698;2023-05-10T12:21:24;5.22;;;2.90;;
4812;SDS011;2420;51.202;8.698;2023-05-10T12:23:52;4.18;;;2.50;;
4812;SDS011;2420;51.202;8.698;2023-05-10T12:26:23;3.53;;;2.50;;
4812;SDS011;2420;51.202;8.698;2023-05-10T12:28:51;3.20;;;2.90;;
4812;SDS011;2420;51.202;8.698;2023-05-10T12:31:20;3.42;;;2.70;;
4812;SDS011;2420;51.202;8.698;2023-05-10T12:33:46;3.83;;;3.17;;
4812;SDS011;2420;51.202;8.698;2023-05-10T12:36:14;3.72;;;3.33;;
4812;SDS011;2420;51.202;8.698;2023-05-10T12:38:44;5.13;;;3.70;;
4812;SDS011;2420;51.202;8.698;2023-05-10T12:41:14;6.03;;;3.75;;
4812;SDS011;2420;51.202;8.698;2023-05-10T12:43:40;6.03;;;4.03;;
4812;SDS011;2420;51.202;8.698;2023-05-10T12:48:32;5.72;;;4.00;;
4812;SDS011;2420;51.202;8.698;2023-05-10T12:51:01;5.25;;;4.00;;
4812;SDS011;2420;51.202;8.698;2023-05-10T12:53:27;5.57;;;4.05;;
4812;SDS011;2420;51.202;8.698;2023-05-10T12:55:53;7.53;;;4.60;;
4812;SDS011;2420;51.202;8.698;2023-05-10T12:58:18;4.32;;;3.60;;
4812;SDS011;2420;51.202;8.698;2023-05-10T13:00:44;4.32;;;3.47;;
4812;SDS011;2420;51.202;8.698;2023-05-10T13:03:10;4.50;;;3.83;;
4812;SDS011;2420;51.202;8.698;2023-05-10T13:05:36;4.60;;;3.70;;
4812;SDS011;2420;51.202;8.698;2023-05-10T13:08:01;5.78;;;4.80;;
4812;SDS011;2420;51.202;8.698;2023-05-10T13:10:30;5.63;;;4.00;;
4812;SDS011;2420;51.202;8.698;2023-05-10T13:12:57;5.75;;;4.40;;
4812;SDS011;2420;51.202;8.698;2023-05-10T13:15:22;4.88;;;4.10;;
4812;SDS011;2420;51.202;8.698;2023-05-10T13:17:48;6.43;;;4.18;;
4812;SDS011;2420;51.202;8.698;2023-05-10T13:20:14;7.47;;;4.47;;
4812;SDS011;2420;51.202;8.698;2023-05-10T13:22:40;6.22;;;4.30;;
4812;SDS011;2420;51.202;8.698;2023-05-10T13:25:06;8.30;;;5.05;;
4812;SDS011;2420;51.202;8.698;2023-05-10T13:27:32;6.15;;;4.28;;
4812;SDS011;2420;51.202;8.698;2023-05-10T13:30:01;6.97;;;5.43;;
4812;SDS011;2420;51.202;8.698;2023-05-10T13:32:28;9.02;;;5.90;;
4812;SDS011;2420;51.202;8.698;2023-05-10T13:34:54;8.25;;;6.20;;
4812;SDS011;2420;51.202;8.698;2023-05-10T13:37:20;6.45;;;4.60;;
4812;SDS011;2420;51.202;8.698;2023-05-10T13:39:46;8.15;;;5.55;;
4812;SDS011;2420;51.202;8.698;2023-05-10T13:42:12;9.80;;;5.63;;
4812;SDS011;2420;51.202;8.698;2023-05-10T13:44:37;10.25;;;5.95;;
4812;SDS011;2420;51.202;8.698;2023-05-10T13:47:03;7.82;;;5.72;;
4812;SDS011;2420;51.202;8.698;2023-05-10T13:49:29;9.30;;;5.72;;
4812;SDS011;2420;51.202;8.698;2023-05-10T13:51:55;8.10;;;5.60;;
4812;SDS011;2420;51.202;8.698;2023-05-10T13:54:21;8.95;;;5.97;;
4812;SDS011;2420;51.202;8.698;2023-05-10T13:56:47;8.23;;;6.28;;
4812;SDS011;2420;51.202;8.698;2023-05-10T13:59:13;8.30;;;6.05;;
4812;SDS011;2420;51.202;8.698;2023-05-10T14:01:39;11.00;;;6.40;;
4812;SDS011;2420;51.202;8.698;2023-05-10T14:04:05;7.47;;;4.90;;
4812;SDS011;2420;51.202;8.698;2023-05-10T14:06:31;5.93;;;4.40;;
4812;SDS011;2420;51.202;8.698;2023-05-10T14:08:57;7.47;;;4.28;;
4812;SDS011;2420;51.202;8.698;2023-05-10T14:11:23;7.75;;;3.58;;
4812;SDS011;2420;51.202;8.698;2023-05-10T14:13:48;5.38;;;3.58;;
4812;SDS011;2420;51.202;8.698;2023-05-10T14:16:14;5.80;;;3.40;;
4812;SDS011;2420;51.202;8.698;2023-05-10T14:18:39;4.60;;;2.72;;
4812;SDS011;2420;51.202;8.698;2023-05-10T14:21:05;4.85;;;3.20;;
4812;SDS011;2420;51.202;8.698;2023-05-10T14:23:31;4.60;;;3.10;;
4812;SDS011;2420;51.202;8.698;2023-05-10T14:25:56;5.57;;;3.50;;
4812;SDS011;2420;51.202;8.698;2023-05-10T14:28:22;4.03;;;3.05;;
4812;SDS011;2420;51.202;8.698;2023-05-10T14:30:48;4.90;;;3.53;;
4812;SDS011;2420;51.202;8.698;2023-05-10T14:33:14;6.53;;;3.65;;
4812;SDS011;2420;51.202;8.698;2023-05-10T14:35:39;5.43;;;3.33;;
4812;SDS011;2420;51.202;8.698;2023-05-10T14:38:05;5.00;;;3.28;;
4812;SDS011;2420;51.202;8.698;2023-05-10T14:40:31;4.60;;;3.45;;
4812;SDS011;2420;51.202;8.698;2023-05-10T14:42:57;4.72;;;3.55;;
4812;SDS011;2420;51.202;8.698;2023-05-10T14:45:22;5.38;;;3.53;;
4812;SDS011;2420;51.202;8.698;2023-05-10T14:47:48;5.28;;;3.58;;
4812;SDS011;2420;51.202;8.698;2023-05-10T14:50:14;5.35;;;3.92;;
4812;SDS011;2420;51.202;8.698;2023-05-10T14:52:41;5.53;;;3.70;;
4812;SDS011;2420;51.202;8.698;2023-05-10T14:55:07;3.88;;;3.30;;
4812;SDS011;2420;51.202;8.698;2023-05-10T14:57:36;5.35;;;3.30;;
4812;SDS011;2420;51.202;8.698;2023-05-10T15:00:02;4.32;;;3.13;;
4812;SDS011;2420;51.202;8.698;2023-05-10T15:02:28;5.00;;;3.30;;
4812;SDS011;2420;51.202;8.698;2023-05-10T15:04:55;4.70;;;3.60;;
4812;SDS011;2420;51.202;8.698;2023-05-10T15:07:21;4.07;;;3.20;;
4812;SDS011;2420;51.202;8.698;2023-05-10T15:09:46;4.22;;;3.13;;
4812;SDS011;2420;51.202;8.698;2023-05-10T15:12:12;4.38;;;2.95;;
4812;SDS011;2420;51.202;8.698;2023-05-10T15:14:37;4.05;;;3.00;;
4812;SDS011;2420;51.202;8.698;2023-05-10T15:17:03;4.85;;;3.20;;
4812;SDS011;2420;51.202;8.698;2023-05-10T15:19:31;4.43;;;3.40;;
4812;SDS011;2420;51.202;8.698;2023-05-10T15:21:58;3.90;;;3.45;;
4812;SDS011;2420;51.202;8.698;2023-05-10T15:24:24;4.22;;;3.28;;
4812;SDS011;2420;51.202;8.698;2023-05-10T15:26:49;4.93;;;3.28;;
4812;SDS011;2420;51.202;8.698;2023-05-10T15:29:15;4.72;;;3.20;;
4812;SDS011;2420;51.202;8.698;2023-05-10T15:31:44;6.40;;;3.45;;
4812;SDS011;2420;51.202;8.698;2023-05-10T15:34:11;7.28;;;3.97;;
4812;SDS011;2420;51.202;8.698;2023-05-10T15:36:38;6.20;;;3.80;;
4812;SDS011;2420;51.202;8.698;2023-05-10T15:39:03;6.55;;;4.03;;
4812;SDS011;2420;51.202;8.698;2023-05-10T15:41:29;5.25;;;3.40;;